PWSweather.com
Personal Weather Stations
Station Observations
J24K28P63
Vysocina, PocatkyCZ 39464

VysocinaPocatkyCZ 39464

Lat: 49.2594238, Lon: 15.2331769

Elevation: 2011

Station Type: Vantage Pro2+

http://meteo-jirkalina.com

High Low Average
Temperature 78.4°F25.8°C 58.1°F14.5°C 69.6°F20.9°C
Dew Point 63.1°F17.3°C 49.0°F9.4°C 58.6°F14.8°C
Winds 12.0 mph 19.3 kmh Calm Calm 5.0 mph E8.0 kmh E
Wind Gusts 20.0 mph32.2 kmh -- 8.0 mph12.9 kmh
Humidity 100% 44% 70%
Pressure 30.11 in1019.6 mb 29.96 in1014.6 mb -
Precipitation 0.11 in2.8 mm - -
Hour Temp Dew Point Humidity Winds Wind Gusts Pressure Precip Precip Rate Daily Precip Total
12:00 AM 59.9°F15.5°C 58.5°F14.7°C 95% 5.6 mph E9.0 kmh E 7.0 mph11.3 kmh 30.03 in1016.9 mb - 0.06 in1.5 mm 0.11 in2.8 mm
12:30 AM 59.6°F15.3°C 58.2°F14.6°C 95% 3.1 mph NE5.0 kmh NE 6.0 mph9.7 kmh 30.02 in1016.6 mb - 0.00 in0.0 mm 0.11 in2.8 mm
01:00 AM 59.5°F15.3°C 57.8°F14.3°C 94% 3.9 mph NE6.3 kmh NE 5.0 mph8.0 kmh 30.02 in1016.6 mb - 0.00 in0.0 mm 0.11 in2.8 mm
01:30 AM 59.2°F15.1°C 57.8°F14.3°C 95% 2.1 mph NE3.4 kmh NE 5.0 mph8.0 kmh 30.02 in1016.6 mb - 0.00 in0.0 mm 0.11 in2.8 mm
02:00 AM 58.9°F14.9°C 57.8°F14.3°C 96% 6.4 mph NE10.3 kmh NE 10.0 mph16.1 kmh 30.01 in1016.3 mb - 0.00 in0.0 mm 0.11 in2.8 mm
02:30 AM 58.9°F14.9°C 57.5°F14.2°C 95% 4.6 mph E7.4 kmh E 7.0 mph11.3 kmh 30.01 in1016.3 mb - 0.00 in0.0 mm 0.11 in2.8 mm
03:00 AM 58.7°F14.8°C 57.0°F13.9°C 94% 3.9 mph ENE6.3 kmh ENE 7.0 mph11.3 kmh 30.01 in1016.3 mb - 0.00 in0.0 mm 0.11 in2.8 mm
03:30 AM 58.4°F14.7°C 57.0°F13.9°C 95% 3.4 mph ENE5.5 kmh ENE 7.0 mph11.3 kmh 30.02 in1016.6 mb - 0.00 in0.0 mm 0.11 in2.8 mm
04:00 AM 58.3°F14.6°C 56.6°F13.7°C 94% 6.3 mph E10.1 kmh E 11.0 mph17.7 kmh 30.01 in1016.3 mb - 0.00 in0.0 mm 0.11 in2.8 mm
04:30 AM 58.1°F14.5°C 55.8°F13.2°C 92% 1.3 mph E2.1 kmh E 5.0 mph8.0 kmh 30.02 in1016.6 mb - 0.00 in0.0 mm 0.11 in2.8 mm
04:50 AM 60.6°F15.9°C 60.6°F15.9°C 100% Calm Calm -- 30.11 in1019.6 mb - 0.00 in0.0 mm 0.06 in1.5 mm
05:00 AM 60.7°F15.9°C 60.7°F15.9°C 100% Calm Calm -- 30.11 in1019.6 mb - 0.00 in0.0 mm 0.06 in1.5 mm
05:10 AM 61.0°F16.1°C 61.0°F16.1°C 100% Calm Calm -- 30.11 in1019.6 mb - 0.00 in0.0 mm 0.06 in1.5 mm
05:20 AM 61.1°F16.2°C 61.1°F16.2°C 100% Calm Calm -- 30.11 in1019.6 mb - 0.00 in0.0 mm 0.06 in1.5 mm
05:30 AM 61.3°F16.3°C 61.3°F16.3°C 100% Calm Calm -- 30.11 in1019.6 mb - 0.00 in0.0 mm 0.06 in1.5 mm
05:40 AM 61.4°F16.3°C 61.4°F16.3°C 100% Calm Calm -- 30.11 in1019.6 mb - 0.00 in0.0 mm 0.06 in1.5 mm
05:50 AM 62.1°F16.7°C 62.1°F16.7°C 100% Calm Calm -- 30.11 in1019.6 mb - 0.00 in0.0 mm 0.06 in1.5 mm
06:00 AM 62.6°F17.0°C 62.6°F17.0°C 100% Calm Calm 1.0 mph1.6 kmh 30.10 in1019.3 mb - 0.00 in0.0 mm 0.06 in1.5 mm
06:10 AM 63.1°F17.3°C 63.1°F17.3°C 100% Calm Calm 1.0 mph1.6 kmh 30.11 in1019.6 mb - 0.00 in0.0 mm 0.06 in1.5 mm
06:20 AM 63.0°F17.2°C 62.7°F17.1°C 99% Calm Calm 1.0 mph1.6 kmh 30.11 in1019.6 mb - 0.00 in0.0 mm 0.06 in1.5 mm
06:30 AM 62.9°F17.2°C 62.6°F17.0°C 99% 2.0 mph SSE3.2 kmh SSE 6.0 mph9.7 kmh 30.11 in1019.6 mb - 0.00 in0.0 mm 0.06 in1.5 mm
06:40 AM 62.1°F16.7°C 61.3°F16.3°C 97% 2.0 mph E3.2 kmh E 3.0 mph4.8 kmh 30.11 in1019.6 mb - 0.00 in0.0 mm 0.06 in1.5 mm
06:50 AM 63.3°F17.4°C 62.2°F16.8°C 96% 2.0 mph E3.2 kmh E 3.0 mph4.8 kmh 30.11 in1019.6 mb - 0.00 in0.0 mm 0.06 in1.5 mm
07:00 AM 64.1°F17.8°C 62.3°F16.8°C 94% 5.0 mph ENE8.0 kmh ENE 7.0 mph11.3 kmh 30.11 in1019.6 mb - 0.00 in0.0 mm 0.06 in1.5 mm
07:10 AM 65.8°F18.8°C 61.4°F16.3°C 86% 6.0 mph ENE9.7 kmh ENE 10.0 mph16.1 kmh 30.11 in1019.6 mb - 0.00 in0.0 mm 0.06 in1.5 mm
07:20 AM 66.9°F19.4°C 60.5°F15.8°C 80% 6.0 mph E9.7 kmh E 10.0 mph16.1 kmh 30.11 in1019.6 mb - 0.00 in0.0 mm 0.06 in1.5 mm
07:30 AM 67.9°F19.9°C 61.1°F16.2°C 79% 6.0 mph ENE9.7 kmh ENE 13.0 mph20.9 kmh 30.11 in1019.6 mb - 0.00 in0.0 mm 0.06 in1.5 mm
07:40 AM 68.7°F20.4°C 61.5°F16.4°C 78% 7.0 mph NE11.3 kmh NE 12.0 mph19.3 kmh 30.11 in1019.6 mb - 0.00 in0.0 mm 0.06 in1.5 mm
07:50 AM 70.1°F21.2°C 61.8°F16.6°C 75% 6.0 mph NE9.7 kmh NE 7.0 mph11.3 kmh 30.11 in1019.6 mb - 0.00 in0.0 mm 0.06 in1.5 mm
08:00 AM 70.3°F21.3°C 61.2°F16.2°C 73% 9.0 mph ENE14.5 kmh ENE 12.0 mph19.3 kmh 30.11 in1019.6 mb - 0.00 in0.0 mm 0.06 in1.5 mm
08:10 AM 70.2°F21.2°C 60.7°F15.9°C 72% 6.0 mph ENE9.7 kmh ENE 8.0 mph12.9 kmh 30.11 in1019.6 mb - 0.00 in0.0 mm 0.06 in1.5 mm
08:20 AM 70.4°F21.3°C 60.5°F15.8°C 71% 6.0 mph E9.7 kmh E 10.0 mph16.1 kmh 30.11 in1019.6 mb - 0.00 in0.0 mm 0.06 in1.5 mm
08:30 AM 70.8°F21.6°C 61.7°F16.5°C 73% 6.0 mph ENE9.7 kmh ENE 7.0 mph11.3 kmh 30.11 in1019.6 mb - 0.00 in0.0 mm 0.06 in1.5 mm
08:40 AM 71.2°F21.8°C 60.9°F16.1°C 70% 7.0 mph NE11.3 kmh NE 12.0 mph19.3 kmh 30.11 in1019.6 mb - 0.00 in0.0 mm 0.06 in1.5 mm
08:50 AM 71.9°F22.2°C 61.2°F16.2°C 69% 3.0 mph E4.8 kmh E 7.0 mph11.3 kmh 30.11 in1019.6 mb - 0.00 in0.0 mm 0.06 in1.5 mm
09:00 AM 72.4°F22.4°C 62.5°F16.9°C 71% 6.0 mph ENE9.7 kmh ENE 10.0 mph16.1 kmh 30.11 in1019.6 mb - 0.00 in0.0 mm 0.06 in1.5 mm
09:10 AM 73.4°F23.0°C 61.3°F16.3°C 66% 7.0 mph NE11.3 kmh NE 13.0 mph20.9 kmh 30.11 in1019.6 mb - 0.00 in0.0 mm 0.06 in1.5 mm
09:20 AM 72.7°F22.6°C 61.2°F16.2°C 67% 7.0 mph NE11.3 kmh NE 10.0 mph16.1 kmh 30.11 in1019.6 mb - 0.00 in0.0 mm 0.06 in1.5 mm
09:30 AM 72.9°F22.7°C 62.1°F16.7°C 69% 6.0 mph ENE9.7 kmh ENE 12.0 mph19.3 kmh 30.11 in1019.6 mb - 0.00 in0.0 mm 0.06 in1.5 mm
09:40 AM 73.6°F23.1°C 60.7°F15.9°C 64% 9.0 mph E14.5 kmh E 12.0 mph19.3 kmh 30.11 in1019.6 mb - 0.00 in0.0 mm 0.06 in1.5 mm
09:50 AM 73.5°F23.1°C 60.1°F15.6°C 63% 7.0 mph E11.3 kmh E 9.0 mph14.5 kmh 30.11 in1019.6 mb - 0.00 in0.0 mm 0.06 in1.5 mm
10:00 AM 74.3°F23.5°C 60.4°F15.8°C 62% 8.0 mph E12.9 kmh E 12.0 mph19.3 kmh 30.11 in1019.6 mb - 0.00 in0.0 mm 0.06 in1.5 mm
10:10 AM 74.8°F23.8°C 61.4°F16.3°C 63% 6.0 mph E9.7 kmh E 13.0 mph20.9 kmh 30.11 in1019.6 mb - 0.00 in0.0 mm 0.06 in1.5 mm
10:20 AM 75.0°F23.9°C 60.6°F15.9°C 61% 7.0 mph E11.3 kmh E 10.0 mph16.1 kmh 30.11 in1019.6 mb - 0.00 in0.0 mm 0.06 in1.5 mm
10:30 AM 75.7°F24.3°C 60.3°F15.7°C 59% 8.0 mph ENE12.9 kmh ENE 12.0 mph19.3 kmh 30.10 in1019.3 mb - 0.00 in0.0 mm 0.06 in1.5 mm
10:40 AM 75.7°F24.3°C 60.8°F16.0°C 60% 8.0 mph ENE12.9 kmh ENE 12.0 mph19.3 kmh 30.10 in1019.3 mb - 0.00 in0.0 mm 0.06 in1.5 mm
10:50 AM 75.8°F24.3°C 60.0°F15.6°C 58% 10.0 mph NE16.1 kmh NE 18.0 mph29.0 kmh 30.10 in1019.3 mb - 0.00 in0.0 mm 0.06 in1.5 mm
11:00 AM 75.6°F24.2°C 60.3°F15.7°C 59% 8.0 mph E12.9 kmh E 10.0 mph16.1 kmh 30.10 in1019.3 mb - 0.00 in0.0 mm 0.06 in1.5 mm
11:10 AM 76.9°F24.9°C 61.0°F16.1°C 58% 10.0 mph ENE16.1 kmh ENE 14.0 mph22.5 kmh 30.09 in1019.0 mb - 0.00 in0.0 mm 0.06 in1.5 mm
11:20 AM 76.4°F24.7°C 60.5°F15.8°C 58% 8.0 mph NE12.9 kmh NE 13.0 mph20.9 kmh 30.09 in1019.0 mb - 0.00 in0.0 mm 0.06 in1.5 mm
11:30 AM 76.4°F24.7°C 61.0°F16.1°C 59% 7.0 mph E11.3 kmh E 13.0 mph20.9 kmh 30.09 in1019.0 mb - 0.00 in0.0 mm 0.06 in1.5 mm
11:40 AM 76.4°F24.7°C 60.5°F15.8°C 58% 8.0 mph NE12.9 kmh NE 14.0 mph22.5 kmh 30.08 in1018.6 mb - 0.00 in0.0 mm 0.06 in1.5 mm
11:50 AM 76.7°F24.8°C 60.3°F15.7°C 57% 10.0 mph NE16.1 kmh NE 12.0 mph19.3 kmh 30.08 in1018.6 mb - 0.00 in0.0 mm 0.06 in1.5 mm
12:00 PM 77.3°F25.2°C 60.4°F15.8°C 56% 6.0 mph NE9.7 kmh NE 9.0 mph14.5 kmh 30.08 in1018.6 mb - 0.00 in0.0 mm 0.06 in1.5 mm
12:10 PM 77.3°F25.2°C 60.9°F16.1°C 57% 10.0 mph NE16.1 kmh NE 13.0 mph20.9 kmh 30.08 in1018.6 mb - 0.00 in0.0 mm 0.06 in1.5 mm
12:20 PM 77.6°F25.3°C 61.7°F16.5°C 58% 7.0 mph E11.3 kmh E 12.0 mph19.3 kmh 30.07 in1018.3 mb - 0.00 in0.0 mm 0.06 in1.5 mm
12:30 PM 77.6°F25.3°C 61.2°F16.2°C 57% 8.0 mph NE12.9 kmh NE 14.0 mph22.5 kmh 30.07 in1018.3 mb - 0.00 in0.0 mm 0.06 in1.5 mm
12:40 PM 77.8°F25.4°C 61.4°F16.3°C 57% 9.0 mph NE14.5 kmh NE 14.0 mph22.5 kmh 30.07 in1018.3 mb - 0.00 in0.0 mm 0.06 in1.5 mm
12:50 PM 77.6°F25.3°C 61.2°F16.2°C 57% 6.0 mph SE9.7 kmh SE 9.0 mph14.5 kmh 30.06 in1017.9 mb - 0.00 in0.0 mm 0.06 in1.5 mm
01:00 PM 78.4°F25.8°C 60.9°F16.1°C 55% 12.0 mph NE19.3 kmh NE 17.0 mph27.4 kmh 30.06 in1017.9 mb - 0.00 in0.0 mm 0.06 in1.5 mm
01:10 PM 77.6°F25.3°C 62.1°F16.7°C 59% 7.0 mph NE11.3 kmh NE 10.0 mph16.1 kmh 30.05 in1017.6 mb - 0.00 in0.0 mm 0.06 in1.5 mm
01:20 PM 76.7°F24.8°C 59.9°F15.5°C 56% 10.0 mph ENE16.1 kmh ENE 20.0 mph32.2 kmh 30.05 in1017.6 mb - 0.00 in0.0 mm 0.06 in1.5 mm
01:30 PM 76.5°F24.7°C 60.1°F15.6°C 57% 7.0 mph NE11.3 kmh NE 10.0 mph16.1 kmh 30.05 in1017.6 mb - 0.00 in0.0 mm 0.06 in1.5 mm
01:40 PM 76.8°F24.9°C 60.4°F15.8°C 57% 9.0 mph ENE14.5 kmh ENE 12.0 mph19.3 kmh 30.05 in1017.6 mb - 0.00 in0.0 mm 0.06 in1.5 mm
01:50 PM 76.2°F24.6°C 59.8°F15.4°C 57% 12.0 mph NE19.3 kmh NE 16.0 mph25.7 kmh 30.04 in1017.3 mb - 0.00 in0.0 mm 0.06 in1.5 mm
02:00 PM 76.0°F24.4°C 59.2°F15.1°C 56% 10.0 mph E16.1 kmh E 13.0 mph20.9 kmh 30.04 in1017.3 mb - 0.00 in0.0 mm 0.06 in1.5 mm
02:10 PM 75.8°F24.3°C 59.0°F15.0°C 56% 8.0 mph ENE12.9 kmh ENE 12.0 mph19.3 kmh 30.04 in1017.3 mb - 0.00 in0.0 mm 0.06 in1.5 mm
02:20 PM 75.5°F24.2°C 59.2°F15.1°C 57% 6.0 mph NE9.7 kmh NE 9.0 mph14.5 kmh 30.04 in1017.3 mb - 0.00 in0.0 mm 0.06 in1.5 mm
02:30 PM 75.5°F24.2°C 59.2°F15.1°C 57% 9.0 mph ENE14.5 kmh ENE 10.0 mph16.1 kmh 30.05 in1017.6 mb - 0.00 in0.0 mm 0.06 in1.5 mm
02:40 PM 75.3°F24.1°C 59.5°F15.3°C 58% 8.0 mph NE12.9 kmh NE 13.0 mph20.9 kmh 30.05 in1017.6 mb - 0.00 in0.0 mm 0.06 in1.5 mm
02:50 PM 74.8°F23.8°C 59.0°F15.0°C 58% 8.0 mph ENE12.9 kmh ENE 10.0 mph16.1 kmh 30.05 in1017.6 mb - 0.00 in0.0 mm 0.06 in1.5 mm
03:00 PM 74.5°F23.6°C 58.8°F14.9°C 58% 7.0 mph NE11.3 kmh NE 12.0 mph19.3 kmh 30.05 in1017.6 mb - 0.00 in0.0 mm 0.06 in1.5 mm
03:10 PM 74.3°F23.5°C 58.6°F14.8°C 58% 8.0 mph NE12.9 kmh NE 13.0 mph20.9 kmh 30.04 in1017.3 mb - 0.00 in0.0 mm 0.06 in1.5 mm
03:20 PM 74.0°F23.3°C 58.8°F14.9°C 59% 7.0 mph NE11.3 kmh NE 13.0 mph20.9 kmh 30.04 in1017.3 mb - 0.00 in0.0 mm 0.06 in1.5 mm
03:30 PM 73.9°F23.3°C 58.2°F14.6°C 58% 7.0 mph NE11.3 kmh NE 12.0 mph19.3 kmh 30.04 in1017.3 mb - 0.00 in0.0 mm 0.06 in1.5 mm
03:40 PM 73.8°F23.2°C 58.1°F14.5°C 58% 6.0 mph NE9.7 kmh NE 9.0 mph14.5 kmh 30.04 in1017.3 mb - 0.00 in0.0 mm 0.06 in1.5 mm
03:50 PM 73.8°F23.2°C 57.6°F14.2°C 57% 8.0 mph ENE12.9 kmh ENE 12.0 mph19.3 kmh 30.05 in1017.6 mb - 0.00 in0.0 mm 0.06 in1.5 mm
04:00 PM 73.8°F23.2°C 58.1°F14.5°C 58% 8.0 mph E12.9 kmh E 12.0 mph19.3 kmh 30.04 in1017.3 mb - 0.00 in0.0 mm 0.06 in1.5 mm
04:10 PM 73.7°F23.2°C 58.5°F14.7°C 59% 6.0 mph ENE9.7 kmh ENE 9.0 mph14.5 kmh 30.04 in1017.3 mb - 0.00 in0.0 mm 0.06 in1.5 mm
04:20 PM 73.6°F23.1°C 58.4°F14.7°C 59% 8.0 mph NE12.9 kmh NE 12.0 mph19.3 kmh 30.04 in1017.3 mb - 0.00 in0.0 mm 0.06 in1.5 mm
04:30 PM 73.4°F23.0°C 57.7°F14.3°C 58% 5.0 mph E8.0 kmh E 10.0 mph16.1 kmh 30.04 in1017.3 mb - 0.00 in0.0 mm 0.06 in1.5 mm
04:40 PM 73.2°F22.9°C 58.0°F14.4°C 59% 5.0 mph E8.0 kmh E 7.0 mph11.3 kmh 30.04 in1017.3 mb - 0.00 in0.0 mm 0.06 in1.5 mm
04:50 PM 73.0°F22.8°C 57.8°F14.3°C 59% 6.0 mph ENE9.7 kmh ENE 9.0 mph14.5 kmh 30.04 in1017.3 mb - 0.00 in0.0 mm 0.06 in1.5 mm
05:00 PM 72.9°F22.7°C 57.7°F14.3°C 59% 6.0 mph E9.7 kmh E 7.0 mph11.3 kmh 30.05 in1017.6 mb - 0.00 in0.0 mm 0.06 in1.5 mm
05:10 PM 72.7°F22.6°C 57.5°F14.2°C 59% 7.0 mph NE11.3 kmh NE 12.0 mph19.3 kmh 30.05 in1017.6 mb - 0.00 in0.0 mm 0.06 in1.5 mm
05:20 PM 72.5°F22.5°C 57.8°F14.3°C 60% 3.0 mph NE4.8 kmh NE 5.0 mph8.0 kmh 30.04 in1017.3 mb - 0.00 in0.0 mm 0.06 in1.5 mm
05:30 PM 72.2°F22.3°C 58.0°F14.4°C 61% 3.0 mph ENE4.8 kmh ENE 3.0 mph4.8 kmh 30.05 in1017.6 mb - 0.00 in0.0 mm 0.06 in1.5 mm
05:40 PM 72.0°F22.2°C 58.3°F14.6°C 62% 2.0 mph ENE3.2 kmh ENE 3.0 mph4.8 kmh 30.05 in1017.6 mb - 0.00 in0.0 mm 0.06 in1.5 mm
05:50 PM 72.0°F22.2°C 58.2°F14.6°C 62% 3.0 mph E4.8 kmh E 3.0 mph4.8 kmh 30.05 in1017.6 mb - 0.00 in0.0 mm 0.06 in1.5 mm
06:00 PM 71.9°F22.2°C 58.6°F14.8°C 63% 2.0 mph ENE3.2 kmh ENE 3.0 mph4.8 kmh 30.05 in1017.6 mb - 0.00 in0.0 mm 0.06 in1.5 mm
06:10 PM 71.7°F22.1°C 58.0°F14.4°C 62% 6.0 mph ENE9.7 kmh ENE 12.0 mph19.3 kmh 30.05 in1017.6 mb - 0.00 in0.0 mm 0.06 in1.5 mm
06:20 PM 71.6°F22.0°C 57.9°F14.4°C 62% 3.0 mph NE4.8 kmh NE 9.0 mph14.5 kmh 30.05 in1017.6 mb - 0.00 in0.0 mm 0.06 in1.5 mm
06:30 PM 71.4°F21.9°C 57.7°F14.3°C 62% 3.0 mph NE4.8 kmh NE 6.0 mph9.7 kmh 30.05 in1017.6 mb - 0.00 in0.0 mm 0.06 in1.5 mm
06:40 PM 71.2°F21.8°C 57.5°F14.2°C 62% 3.0 mph ENE4.8 kmh ENE 3.0 mph4.8 kmh 30.06 in1017.9 mb - 0.00 in0.0 mm 0.06 in1.5 mm
06:50 PM 70.8°F21.6°C 58.0°F14.4°C 64% 1.0 mph ENE1.6 kmh ENE 1.0 mph1.6 kmh 30.06 in1017.9 mb - 0.00 in0.0 mm 0.06 in1.5 mm
07:00 PM 70.4°F21.3°C 58.5°F14.7°C 66% Calm Calm -- 30.06 in1017.9 mb - 0.00 in0.0 mm 0.06 in1.5 mm
07:10 PM 69.9°F21.1°C 58.9°F14.9°C 68% 1.0 mph ENE1.6 kmh ENE 3.0 mph4.8 kmh 30.06 in1017.9 mb - 0.00 in0.0 mm 0.06 in1.5 mm
07:20 PM 69.4°F20.8°C 59.2°F15.1°C 70% Calm Calm 2.0 mph3.2 kmh 30.06 in1017.9 mb - 0.00 in0.0 mm 0.06 in1.5 mm
07:30 PM 68.8°F20.4°C 59.8°F15.4°C 73% 1.0 mph ENE1.6 kmh ENE 2.0 mph3.2 kmh 30.06 in1017.9 mb - 0.00 in0.0 mm 0.06 in1.5 mm
08:00 PM 65.2°F18.4°C 51.0°F10.6°C 60% 0.5 mph E0.8 kmh E 5.0 mph8.0 kmh 29.98 in1015.2 mb - 0.00 in0.0 mm 0.11 in2.8 mm
08:30 PM 64.5°F18.1°C 51.2°F10.7°C 62% 0.1 mph ENE0.2 kmh ENE -- 29.99 in1015.6 mb - 0.00 in0.0 mm 0.11 in2.8 mm
09:00 PM 63.4°F17.4°C 51.4°F10.8°C 65% Calm Calm -- 30.00 in1015.9 mb - 0.00 in0.0 mm 0.11 in2.8 mm
09:30 PM 62.9°F17.2°C 54.5°F12.5°C 74% 0.2 mph NW0.3 kmh NW 1.0 mph1.6 kmh 30.00 in1015.9 mb - 0.00 in0.0 mm 0.11 in2.8 mm
10:00 PM 61.0°F16.1°C 59.3°F15.2°C 94% Calm Calm -- 30.00 in1015.9 mb - 0.00 in0.0 mm 0.11 in2.8 mm
10:30 PM 60.4°F15.8°C 59.3°F15.2°C 96% Calm Calm -- 30.00 in1015.9 mb - 0.00 in0.0 mm 0.11 in2.8 mm
11:00 PM 60.4°F15.8°C 59.5°F15.3°C 97% Calm Calm -- 30.00 in1015.9 mb - 0.00 in0.0 mm 0.06 in1.5 mm
11:30 PM 59.8°F15.4°C 58.7°F14.8°C 96% 0.4 mph SW0.6 kmh SW 5.0 mph8.0 kmh 30.02 in1016.6 mb - 0.00 in0.0 mm 0.06 in1.5 mm